JFK weather

Public forecast

Using degrees Fahrenheit for public forecast. Weather courtesy of forecast.io.

Current aviation weather report (METAR) for John F Kennedy International Airport

Retrieved 2020/08/15 00:51 UTC (1 hour ago):

KJFK 150051Z 09003KT 10SM FEW075 SCT250 24/18 A2998 RMK AO2 SLP152 T02440178

Aviation forecast (TAF) for John F Kennedy International Airport

Retrieved 2020-08-15 00:38 UTC (1 hour ago):

TAF KJFK 142333Z 1500/1606 09010KT P6SM FEW050 FEW150 SCT250 FM150200 02008KT P6SM FEW250 FM151600 08013G20KT P6SM SCT060 BKN250 FM160200 05009KT P6SM SCT060 BKN250